Time;durP1;ratioP1;P1;durP2;ratioP2;P2;SDS_P1;SDS_P2;PMS_P1;PMS_P2;Temp;Humidity;BMP_temperature;BMP_pressure;BME280_temperature;BME280_humidity;BME280_pressure;Samples;Min_cycle;Max_cycle;Signal;HPM_P1;HPM_P2
2022/10/15 00:01:13;;;;;;;31.20;19.27;;;;;;;0.60;100.00;101253.56;1701250;84;21113;-55
2022/10/15 00:03:42;;;;;;;34.55;21.10;;;;;;;0.49;100.00;101261.09;1701642;83;21206;-54
2022/10/15 00:06:12;;;;;;;36.33;22.58;;;;;;;0.46;100.00;101257.45;1702462;83;20983;-59
2022/10/15 00:08:40;;;;;;;39.90;22.73;;;;;;;0.42;100.00;101252.97;1703038;84;21049;-55
2022/10/15 00:11:15;;;;;;;34.65;20.20;;;;;;;0.42;100.00;101254.25;1702916;84;21461;-55
2022/10/15 00:13:42;;;;;;;27.35;17.85;;;;;;;0.39;100.00;101245.92;1702598;84;21019;-55
2022/10/15 00:16:18;;;;;;;32.17;18.15;;;;;;;0.37;100.00;101242.61;1702179;84;22058;-59
2022/10/15 00:18:47;;;;;;;31.42;19.05;;;;;;;0.37;100.00;101248.56;1703014;84;21409;-55
2022/10/15 00:21:18;;;;;;;32.40;20.40;;;;;;;0.34;100.00;101250.05;1702821;84;21059;-55
2022/10/15 00:23:46;;;;;;;32.60;19.10;;;;;;;0.32;100.00;101244.17;1702676;84;20907;-56
2022/10/15 00:26:21;;;;;;;29.45;18.57;;;;;;;0.33;100.00;101247.09;1702795;84;21009;-54
2022/10/15 00:28:49;;;;;;;25.50;17.90;;;;;;;0.32;100.00;101245.45;1702895;84;21299;-55
2022/10/15 00:31:18;;;;;;;25.97;18.12;;;;;;;0.38;100.00;101255.79;1702729;84;20921;-55
2022/10/15 00:33:49;;;;;;;27.50;17.07;;;;;;;0.31;100.00;101252.80;1702469;84;20908;-55
2022/10/15 00:36:22;;;;;;;25.37;15.95;;;;;;;0.28;100.00;101246.56;1703138;84;21021;-57
2022/10/15 00:38:50;;;;;;;26.62;16.80;;;;;;;0.28;100.00;101251.69;1702957;84;21479;-55
2022/10/15 00:41:27;;;;;;;21.57;13.85;;;;;;;0.24;100.00;101247.20;1702601;84;20896;-54
2022/10/15 00:43:56;;;;;;;22.48;14.83;;;;;;;0.19;100.00;101255.64;1702637;84;21065;-54
2022/10/15 00:46:39;;;;;;;18.75;12.80;;;;;;;0.15;100.00;101255.45;1702906;83;21534;-54
2022/10/15 00:49:34;;;;;;;55.98;30.92;;;;;;;0.21;100.00;101253.79;1682706;84;20939;-54
2022/10/15 00:52:15;;;;;;;67.75;40.38;;;;;;;0.20;100.00;101256.00;1686733;84;20970;-54
2022/10/15 00:54:50;;;;;;;20.25;12.25;;;;;;;0.22;100.00;101252.86;1703270;83;21117;-57
2022/10/15 00:57:17;;;;;;;33.65;20.70;;;;;;;0.20;100.00;101253.43;1702934;84;21082;-54
2022/10/15 00:59:48;;;;;;;21.73;12.88;;;;;;;0.15;100.00;101256.73;1702866;84;21010;-54
2022/10/15 01:02:17;;;;;;;16.30;9.93;;;;;;;0.10;100.00;101257.91;1702741;84;20907;-54
2022/10/15 01:04:44;;;;;;;16.65;10.45;;;;;;;0.04;100.00;101259.11;1702340;83;20966;-55
2022/10/15 01:07:12;;;;;;;17.02;10.10;;;;;;;-0.03;100.00;101254.80;1702815;84;21310;-54
2022/10/15 01:09:45;;;;;;;18.35;10.93;;;;;;;-0.09;100.00;101252.58;1702772;84;20987;-54
2022/10/15 01:12:51;;;;;;;18.67;10.30;;;;;;;-0.10;100.00;101257.80;1702561;84;21576;-54
2022/10/15 01:15:24;;;;;;;13.00;7.40;;;;;;;-0.11;100.00;101251.86;1702111;83;20868;-58
2022/10/15 01:18:03;;;;;;;11.05;7.40;;;;;;;-0.10;100.00;101261.66;1702938;84;20947;-57
2022/10/15 01:21:04;;;;;;;15.25;8.88;;;;;;;-0.08;100.00;101270.87;1683857;84;21419;-55
2022/10/15 01:24:32;;;;;;;11.38;6.75;;;;;;;-0.06;100.00;101261.84;1702574;84;20999;-64
2022/10/15 01:27:04;;;;;;;11.18;6.92;;;;;;;-0.04;100.00;101267.69;1702455;84;20891;-56
2022/10/15 01:29:40;;;;;;;10.93;6.47;;;;;;;-0.04;100.00;101262.12;1702792;84;21046;-56
2022/10/15 01:32:27;;;;;;;14.55;9.98;;;;;;;-0.04;100.00;101259.99;1698143;84;21121;-54
2022/10/15 01:35:19;;;;;;;13.55;8.68;;;;;;;-0.06;100.00;101257.53;1702912;84;22212;-54
2022/10/15 01:37:56;;;;;;;14.25;7.97;;;;;;;-0.06;100.00;101261.38;1703157;84;21418;-53
2022/10/15 01:40:37;;;;;;;11.57;7.83;;;;;;;-0.09;100.00;101274.83;1703086;84;21308;-54
2022/10/15 01:43:08;;;;;;;13.08;7.17;;;;;;;-0.19;100.00;101280.10;1703565;84;21516;-55
2022/10/15 01:45:55;;;;;;;14.45;8.28;;;;;;;-0.23;100.00;101287.60;1682102;84;21399;-58
2022/10/15 01:48:27;;;;;;;11.53;8.18;;;;;;;-0.32;100.00;101284.66;1689621;84;21488;-54
2022/10/15 01:50:59;;;;;;;14.35;9.05;;;;;;;-0.39;100.00;101288.48;1702912;83;20971;-54
2022/10/15 01:53:26;;;;;;;12.07;8.00;;;;;;;-0.41;100.00;101288.22;1702429;84;21500;-65
2022/10/15 01:55:56;;;;;;;10.15;6.92;;;;;;;-0.45;100.00;101277.31;1702956;84;21137;-55
2022/10/15 01:58:25;;;;;;;9.03;5.45;;;;;;;-0.47;100.00;101287.27;1703227;84;21580;-54
2022/10/15 02:00:53;;;;;;;10.60;6.22;;;;;;;-0.44;100.00;101290.48;1702902;84;22345;-54
2022/10/15 02:03:21;;;;;;;10.93;5.83;;;;;;;-0.42;100.00;101293.77;1683179;84;21034;-66
2022/10/15 02:06:03;;;;;;;12.05;6.17;;;;;;;-0.42;100.00;101293.77;1701347;83;20998;-54
2022/10/15 02:09:05;;;;;;;8.35;5.58;;;;;;;-0.43;100.00;101297.25;1675272;84;20959;-54
2022/10/15 02:11:41;;;;;;;11.28;5.33;;;;;;;-0.46;100.00;101297.41;1651328;84;21014;-54
2022/10/15 02:14:15;;;;;;;12.18;6.28;;;;;;;-0.52;100.00;101301.63;1654301;86;21273;-54
2022/10/15 02:17:00;;;;;;;9.95;5.70;;;;;;;-0.60;100.00;101303.79;1654884;86;21060;-55
2022/10/15 02:19:39;;;;;;;11.30;6.35;;;;;;;-0.65;100.00;101307.04;1655824;86;21488;-54
2022/10/15 02:22:14;;;;;;;12.68;7.95;;;;;;;-0.67;100.00;101302.02;1655215;86;20982;-59
2022/10/15 02:24:58;;;;;;;10.40;6.60;;;;;;;-0.72;100.00;101306.55;1701405;84;22014;-54
2022/10/15 02:27:26;;;;;;;10.68;6.33;;;;;;;-0.75;100.00;101305.00;1627195;87;21276;-54
2022/10/15 02:29:53;;;;;;;10.68;6.40;;;;;;;-0.72;100.00;101298.86;1644866;87;21004;-55
2022/10/15 02:32:22;;;;;;;11.63;6.12;;;;;;;-0.69;100.00;101314.06;1701361;84;22033;-55
2022/10/15 02:34:50;;;;;;;9.25;5.83;;;;;;;-0.62;100.00;101312.82;1701285;84;20983;-54
2022/10/15 02:37:20;;;;;;;10.93;5.35;;;;;;;-0.56;100.00;101312.95;1701524;84;21449;-54
2022/10/15 02:39:47;;;;;;;8.73;5.25;;;;;;;-0.53;100.00;101313.61;1700734;83;21090;-63
2022/10/15 02:42:16;;;;;;;8.33;4.95;;;;;;;-0.46;100.00;101310.69;1701128;84;21113;-54
2022/10/15 02:44:43;;;;;;;8.13;4.83;;;;;;;-0.47;100.00;101315.45;1701396;84;20978;-55
2022/10/15 02:47:11;;;;;;;6.35;3.98;;;;;;;-0.47;100.00;101314.16;1700976;84;21025;-54
2022/10/15 02:49:39;;;;;;;11.15;5.15;;;;;;;-0.47;100.00;101317.55;1701337;84;20987;-64
2022/10/15 02:52:08;;;;;;;8.73;4.97;;;;;;;-0.44;100.00;101315.28;1674993;84;21265;-54
2022/10/15 02:54:35;;;;;;;6.17;4.40;;;;;;;-0.44;100.00;101317.84;1701069;84;21065;-53
2022/10/15 02:57:03;;;;;;;8.48;5.03;;;;;;;-0.47;100.00;101323.12;1701250;84;20943;-54
2022/10/15 02:59:30;;;;;;;9.00;4.75;;;;;;;-0.54;100.00;101321.36;1701202;83;21749;-55
2022/10/15 03:01:59;;;;;;;9.70;4.67;;;;;;;-0.59;100.00;101316.50;1700625;84;21424;-54
2022/10/15 03:04:26;;;;;;;7.80;4.95;;;;;;;-0.56;100.00;101315.05;1701174;83;21359;-54
2022/10/15 03:06:56;;;;;;;6.42;4.15;;;;;;;-0.54;100.00;101317.52;1701679;84;20841;-55
2022/10/15 03:09:23;;;;;;;7.67;5.03;;;;;;;-0.54;100.00;101320.89;1701337;83;21529;-53
2022/10/15 03:11:50;;;;;;;8.23;5.00;;;;;;;-0.55;100.00;101321.81;1700464;84;21113;-56
2022/10/15 03:14:18;;;;;;;8.45;5.20;;;;;;;-0.53;100.00;101325.56;1701172;84;21510;-53
2022/10/15 03:16:47;;;;;;;8.13;5.00;;;;;;;-0.52;100.00;101328.52;1701182;83;21675;-55
2022/10/15 03:19:14;;;;;;;9.18;4.85;;;;;;;-0.64;100.00;101328.73;1701089;84;20978;-54
2022/10/15 03:21:41;;;;;;;11.05;5.12;;;;;;;-0.67;100.00;101331.46;1701007;84;21492;-57
2022/10/15 03:24:11;;;;;;;7.53;5.10;;;;;;;-0.76;100.00;101327.68;1700894;84;21078;-53
2022/10/15 03:26:38;;;;;;;11.20;5.08;;;;;;;-0.85;100.00;101323.50;1701157;84;21128;-54
2022/10/15 03:29:06;;;;;;;7.05;4.92;;;;;;;-0.90;100.00;101329.33;1701256;84;21337;-54
2022/10/15 03:31:38;;;;;;;9.25;5.92;;;;;;;-0.93;100.00;101330.31;1699698;84;20939;-54
2022/10/15 03:34:06;;;;;;;10.20;5.40;;;;;;;-0.90;100.00;101324.21;1700388;84;21478;-55
2022/10/15 03:36:33;;;;;;;11.30;6.33;;;;;;;-0.85;100.00;101328.16;1700908;84;21381;-54
2022/10/15 03:39:00;;;;;;;10.75;7.60;;;;;;;-0.84;100.00;101323.86;1701341;84;21551;-54
2022/10/15 03:41:28;;;;;;;9.63;5.78;;;;;;;-0.85;100.00;101330.72;1700931;84;21150;-56
2022/10/15 03:44:00;;;;;;;8.78;5.70;;;;;;;-0.78;100.00;101332.50;1700728;84;21006;-57
2022/10/15 03:46:28;;;;;;;7.53;5.58;;;;;;;-0.78;100.00;101332.05;1676767;84;22005;-54
2022/10/15 03:48:55;;;;;;;7.80;5.15;;;;;;;-0.77;100.00;101332.86;1701533;84;20979;-54
2022/10/15 03:51:22;;;;;;;6.58;4.05;;;;;;;-0.76;100.00;101331.52;1701277;84;21477;-54
2022/10/15 03:53:50;;;;;;;8.00;4.40;;;;;;;-0.81;100.00;101330.92;1701154;84;21320;-55
2022/10/15 03:56:18;;;;;;;6.65;4.58;;;;;;;-0.80;100.00;101338.14;1700301;83;20939;-54
2022/10/15 03:58:46;;;;;;;7.30;4.67;;;;;;;-0.76;100.00;101340.91;1701218;84;20975;-54
2022/10/15 04:01:16;;;;;;;7.03;4.83;;;;;;;-0.69;100.00;101341.41;1701018;84;20978;-56
2022/10/15 04:03:43;;;;;;;6.83;4.72;;;;;;;-0.58;100.00;101339.91;1701116;84;21559;-56
2022/10/15 04:06:11;;;;;;;7.03;4.72;;;;;;;-0.47;100.00;101345.72;1702083;83;22203;-54
2022/10/15 04:08:38;;;;;;;7.08;4.78;;;;;;;-0.39;100.00;101349.95;1702969;84;21016;-56
2022/10/15 04:11:07;;;;;;;7.53;4.92;;;;;;;-0.26;100.00;101351.40;1700430;84;20991;-54
2022/10/15 04:13:35;;;;;;;8.78;5.22;;;;;;;-0.22;100.00;101349.48;1702823;84;21039;-54
2022/10/15 04:16:06;;;;;;;8.60;5.37;;;;;;;-0.15;100.00;101349.48;1702637;83;21023;-56
2022/10/15 04:18:34;;;;;;;17.15;10.60;;;;;;;-0.04;100.00;101354.83;1703123;84;21751;-54
2022/10/15 04:21:02;;;;;;;17.80;11.93;;;;;;;0.04;100.00;101347.55;1702903;84;21019;-55
2022/10/15 04:23:29;;;;;;;10.28;5.55;;;;;;;0.16;100.00;101357.09;1702932;84;21073;-55
2022/10/15 04:25:59;;;;;;;8.53;4.30;;;;;;;0.35;100.00;101357.30;1699701;83;20960;-62
2022/10/15 04:28:27;;;;;;;9.40;5.95;;;;;;;0.54;100.00;101351.45;1703056;84;20998;-55
2022/10/15 04:30:58;;;;;;;8.63;5.28;;;;;;;0.77;100.00;101351.35;1702836;84;21249;-54
2022/10/15 04:33:25;;;;;;;;;;;;;;;0.99;100.00;101357.29;1705262;83;20999;-54
2022/10/15 04:36:06;;;;;;;10.65;4.97;;;;;;;1.19;100.00;101358.16;1702756;84;20122;-55
2022/10/15 04:38:35;;;;;;;8.30;5.62;;;;;;;1.43;100.00;101363.95;1692729;84;21145;-54
2022/10/15 04:41:09;;;;;;;8.55;5.12;;;;;;;1.71;100.00;101364.33;1702911;84;21547;-55
2022/10/15 04:43:43;;;;;;;8.55;5.17;;;;;;;1.97;100.00;101371.66;1701941;84;21175;-56
2022/10/15 04:46:11;;;;;;;8.08;4.55;;;;;;;2.21;100.00;101377.39;1702514;84;21480;-55
2022/10/15 04:48:39;;;;;;;7.30;4.05;;;;;;;2.37;100.00;101374.16;1702542;84;21920;-55
2022/10/15 04:51:11;;;;;;;9.25;5.00;;;;;;;2.46;100.00;101379.14;1703098;83;20974;-55
2022/10/15 04:53:43;;;;;;;8.28;5.00;;;;;;;2.59;100.00;101381.27;1700587;84;21050;-57
2022/10/15 04:56:14;;;;;;;7.60;4.30;;;;;;;2.77;100.00;101383.06;1702370;84;21269;-56
2022/10/15 04:58:41;;;;;;;6.03;4.50;;;;;;;3.14;100.00;101386.03;1703336;83;20958;-55
2022/10/15 05:01:11;;;;;;;5.05;3.50;;;;;;;3.14;100.00;101386.03;1702985;84;21727;-55
2022/10/15 05:03:41;;;;;;;6.17;4.00;;;;;;;3.28;100.00;101388.09;1700992;84;21019;-55
2022/10/15 05:06:11;;;;;;;5.62;3.40;;;;;;;3.39;100.00;101393.31;1712077;83;21066;-55
2022/10/15 05:08:44;;;;;;;6.83;3.58;;;;;;;3.49;100.00;101391.73;1718672;83;20990;-55
2022/10/15 05:11:14;;;;;;;7.20;3.90;;;;;;;3.59;100.00;101386.27;1716780;83;20995;-55
2022/10/15 05:13:41;;;;;;;6.85;3.95;;;;;;;3.72;100.00;101387.98;1718227;83;21030;-64
2022/10/15 05:16:14;;;;;;;6.62;3.83;;;;;;;3.85;100.00;101384.86;1717713;83;21006;-55
2022/10/15 05:18:44;;;;;;;6.47;4.12;;;;;;;3.99;100.00;101390.31;1718336;82;20891;-56
2022/10/15 05:21:11;;;;;;;7.92;4.30;;;;;;;4.14;100.00;101390.47;1718306;82;21181;-55
2022/10/15 05:23:40;;;;;;;8.10;5.00;;;;;;;4.32;100.00;101388.29;1718034;83;20990;-55
2022/10/15 05:26:21;;;;;;;9.73;4.92;;;;;;;4.47;100.00;101389.72;1717217;83;20942;-55
2022/10/15 05:28:49;;;;;;;6.80;4.55;;;;;;;4.68;100.00;101391.13;1718070;83;21500;-56
2022/10/15 05:31:20;;;;;;;7.80;4.70;;;;;;;4.92;100.00;101385.83;1717122;83;20883;-57
2022/10/15 05:33:51;;;;;;;8.60;4.67;;;;;;;5.27;100.00;101383.59;1717761;82;21161;-58
2022/10/15 05:36:26;;;;;;;8.03;4.93;;;;;;;5.77;100.00;101386.48;1718384;83;21361;-56
2022/10/15 05:38:56;;;;;;;8.73;5.30;;;;;;;6.60;100.00;101376.61;1718534;83;21012;-55
2022/10/15 05:41:24;;;;;;;10.07;7.73;;;;;;;7.77;100.00;101393.27;1718345;83;21293;-56
2022/10/15 05:43:54;;;;;;;8.33;5.53;;;;;;;8.89;100.00;101378.65;1717707;83;21224;-61
2022/10/15 05:46:25;;;;;;;12.45;8.80;;;;;;;9.89;100.00;101381.61;1718234;83;21805;-54
2022/10/15 05:48:56;;;;;;;8.50;5.80;;;;;;;10.66;100.00;101381.80;1718301;83;20950;-55
2022/10/15 05:51:24;;;;;;;9.45;5.55;;;;;;;11.36;100.00;101377.12;1718573;82;21034;-56
2022/10/15 05:53:54;;;;;;;8.13;5.37;;;;;;;11.87;100.00;101380.47;1718014;83;20982;-65
2022/10/15 05:56:22;;;;;;;7.43;4.80;;;;;;;12.25;100.00;101382.56;1717980;83;21316;-56
2022/10/15 05:58:49;;;;;;;7.07;4.40;;;;;;;12.54;100.00;101378.06;1718078;83;21161;-56
2022/10/15 06:01:17;;;;;;;7.30;4.40;;;;;;;12.87;100.00;101380.88;1718490;83;20894;-56
2022/10/15 06:03:47;;;;;;;9.43;5.30;;;;;;;13.14;100.00;101377.01;1717625;83;20951;-56
2022/10/15 06:06:17;;;;;;;6.90;5.07;;;;;;;13.27;100.00;101379.58;1709830;83;21134;-56
2022/10/15 06:08:46;;;;;;;10.73;7.53;;;;;;;13.41;100.00;101379.31;1703199;84;21775;-56
2022/10/15 06:11:15;;;;;;;10.87;7.90;;;;;;;13.52;100.00;101381.02;1702803;83;20982;-58
2022/10/15 06:13:42;;;;;;;10.10;7.27;;;;;;;13.70;100.00;101381.23;1703048;84;21002;-56
2022/10/15 06:16:12;;;;;;;7.70;5.23;;;;;;;13.80;100.00;101383.94;1702346;84;21018;-57
2022/10/15 06:18:39;;;;;;;7.93;4.40;;;;;;;13.91;100.00;101385.33;1703115;84;21375;-56
2022/10/15 06:21:07;;;;;;;9.83;4.77;;;;;;;13.87;100.00;101384.88;1703486;84;20936;-56
2022/10/15 06:23:34;;;;;;;7.83;5.30;;;;;;;13.76;98.35;101389.22;1703446;84;21819;-56
2022/10/15 06:26:04;;;;;;;14.17;10.83;;;;;;;13.76;98.56;101390.53;1702915;84;20966;-64
2022/10/15 06:28:32;;;;;;;11.77;7.63;;;;;;;13.96;97.51;101399.21;1703215;84;21427;-56
2022/10/15 06:30:59;;;;;;;7.40;4.57;;;;;;;13.98;94.47;101386.26;1703138;84;20998;-56
2022/10/15 06:33:30;;;;;;;7.17;3.83;;;;;;;14.11;89.21;101392.19;1703255;84;20888;-55
2022/10/15 06:36:02;;;;;;;5.53;3.90;;;;;;;14.07;84.01;101381.24;1702852;84;22040;-61
2022/10/15 06:38:30;;;;;;;7.83;4.80;;;;;;;13.94;85.08;101381.52;1703306;84;21430;-54
2022/10/15 06:40:58;;;;;;;6.27;4.23;;;;;;;13.97;87.21;101383.30;1703180;84;21042;-54
2022/10/15 06:43:25;;;;;;;7.40;3.80;;;;;;;14.03;85.85;101377.35;1703107;84;20974;-55
2022/10/15 06:45:53;;;;;;;4.67;2.70;;;;;;;14.16;82.89;101381.16;1702912;84;20991;-62
2022/10/15 06:48:20;;;;;;;5.17;3.10;;;;;;;14.22;82.17;101387.02;1702966;84;22187;-54
2022/10/15 06:50:47;;;;;;;5.60;3.17;;;;;;;14.26;76.62;101382.53;1703107;84;21896;-54
2022/10/15 06:53:15;;;;;;;5.60;3.00;;;;;;;14.14;73.27;101386.59;1703221;84;20987;-54
2022/10/15 06:55:43;;;;;;;6.10;3.03;;;;;;;13.92;74.13;101380.90;1702942;84;21058;-54
2022/10/15 06:58:10;;;;;;;5.23;3.30;;;;;;;13.92;78.24;101384.83;1702690;83;20908;-54
2022/10/15 07:00:37;;;;;;;15.00;10.10;;;;;;;14.11;75.46;101388.26;1703165;84;21096;-54
2022/10/15 07:03:06;;;;;;;6.33;3.60;;;;;;;14.28;76.41;101394.98;1702849;84;20940;-54
2022/10/15 07:05:34;;;;;;;4.87;3.03;;;;;;;14.48;75.44;101383.96;1702872;83;21007;-54
2022/10/15 07:08:02;;;;;;;8.83;5.97;;;;;;;14.60;71.88;101393.03;1700773;84;21019;-54
2022/10/15 07:10:31;;;;;;;12.93;7.77;;;;;;;14.62;72.63;101383.66;1701284;83;21011;-54
2022/10/15 07:13:00;;;;;;;5.47;4.20;;;;;;;14.59;72.60;101389.59;1701068;84;21260;-54
2022/10/15 07:15:27;;;;;;;9.80;5.73;;;;;;;14.63;70.91;101390.05;1701162;84;20844;-55
2022/10/15 07:18:00;;;;;;;8.47;6.13;;;;;;;14.60;70.21;101387.78;1700691;84;20896;-56
2022/10/15 07:20:28;;;;;;;8.48;4.67;;;;;;;14.64;70.50;101393.48;1701205;84;21877;-55
2022/10/15 07:22:58;;;;;;;4.70;3.60;;;;;;;14.67;70.08;101396.56;1701632;84;20927;-55
2022/10/15 07:25:27;;;;;;;7.80;4.60;;;;;;;14.77;69.58;101404.98;1701106;82;21093;-56
2022/10/15 07:27:55;;;;;;;5.80;4.17;;;;;;;14.88;68.54;101404.98;1700546;84;20963;-54
2022/10/15 07:30:23;;;;;;;5.83;3.27;;;;;;;14.79;65.94;101396.91;1676175;84;20994;-54
2022/10/15 07:32:52;;;;;;;4.97;3.40;;;;;;;14.49;66.04;101401.33;1701461;84;21568;-54
2022/10/15 07:35:19;;;;;;;6.30;4.10;;;;;;;14.41;66.94;101398.79;1701318;84;21488;-56
2022/10/15 07:37:46;;;;;;;6.20;3.37;;;;;;;14.27;69.09;101401.20;1701506;84;22243;-54
2022/10/15 07:40:16;;;;;;;5.87;3.53;;;;;;;14.33;70.61;101391.31;1701300;84;21034;-55
2022/10/15 07:42:53;;;;;;;4.87;3.57;;;;;;;14.49;70.71;101388.20;1701817;84;20974;-55
2022/10/15 07:45:23;;;;;;;6.50;3.40;;;;;;;14.47;68.67;101386.25;1700720;84;21000;-56
2022/10/15 07:47:52;;;;;;;5.30;2.77;;;;;;;14.53;69.81;101387.69;1701212;84;21493;-54
2022/10/15 07:50:19;;;;;;;3.93;2.50;;;;;;;14.64;70.29;101386.42;1701431;84;21281;-55
2022/10/15 07:52:47;;;;;;;5.27;3.23;;;;;;;14.83;66.72;101394.23;1701519;84;21473;-55
2022/10/15 07:55:15;;;;;;;5.27;3.03;;;;;;;14.86;66.09;101391.75;1701479;84;20939;-57
2022/10/15 07:57:42;;;;;;;5.27;3.40;;;;;;;14.88;63.91;101398.42;1701101;84;21097;-55
2022/10/15 08:00:10;;;;;;;8.10;5.07;;;;;;;14.86;63.87;101393.06;1701273;84;21047;-54
2022/10/15 08:02:40;;;;;;;8.45;3.35;;;;;;;14.78;64.03;101395.30;1701862;84;21135;-55
2022/10/15 08:05:08;;;;;;;5.27;3.30;;;;;;;14.59;64.72;101392.22;1700928;84;21051;-57
2022/10/15 08:07:35;;;;;;;8.03;4.00;;;;;;;14.48;66.14;101390.52;1701068;83;21031;-55
2022/10/15 08:10:05;;;;;;;5.43;3.30;;;;;;;14.64;68.55;101390.86;1701198;84;20998;-55
2022/10/15 08:12:35;;;;;;;5.13;3.03;;;;;;;14.93;66.74;101390.02;1701297;84;20932;-54
2022/10/15 08:15:02;;;;;;;5.90;3.03;;;;;;;15.24;65.08;101389.27;1701739;84;21211;-55
2022/10/15 08:17:31;;;;;;;5.73;2.30;;;;;;;15.64;62.73;101394.09;1701025;84;20944;-55
2022/10/15 08:19:59;;;;;;;3.97;2.20;;;;;;;15.86;61.84;101394.92;1701292;84;21419;-54
2022/10/15 08:22:26;;;;;;;5.23;2.47;;;;;;;16.08;59.95;101390.44;1701195;84;21007;-55
2022/10/15 08:24:56;;;;;;;4.73;3.20;;;;;;;16.14;59.67;101392.29;1701356;84;20975;-55
2022/10/15 08:27:25;;;;;;;3.87;2.23;;;;;;;16.22;58.79;101393.48;1701141;84;21157;-57
2022/10/15 08:29:54;;;;;;;6.08;2.47;;;;;;;16.27;58.84;101397.15;1701115;84;21491;-55
2022/10/15 08:32:22;;;;;;;4.43;2.23;;;;;;;16.34;56.57;101401.14;1701033;84;21023;-55
2022/10/15 08:34:50;;;;;;;11.90;8.27;;;;;;;16.36;56.60;101393.05;1701360;84;21569;-55
2022/10/15 08:37:18;;;;;;;10.47;7.47;;;;;;;16.28;55.77;101402.72;1701446;84;21424;-57
2022/10/15 08:39:45;;;;;;;10.67;7.87;;;;;;;15.99;55.91;101401.62;1701133;82;21254;-56
2022/10/15 08:42:20;;;;;;;9.47;6.53;;;;;;;15.68;55.96;101409.34;1701479;84;21003;-55
2022/10/15 08:44:50;;;;;;;6.00;3.33;;;;;;;15.29;57.08;101393.45;1701458;84;20948;-57
2022/10/15 08:47:43;;;;;;;4.63;2.53;;;;;;;15.32;57.38;101395.70;1700744;84;20967;-56
2022/10/15 08:50:28;;;;;;;5.03;3.23;;;;;;;15.43;57.89;101393.59;1701369;84;21493;-55
2022/10/15 08:52:55;;;;;;;4.50;2.50;;;;;;;15.40;55.54;101401.34;1700900;84;21721;-55
2022/10/15 08:55:22;;;;;;;4.83;2.07;;;;;;;15.00;56.07;101391.73;1701190;82;21792;-55
2022/10/15 08:58:01;;;;;;;4.23;2.53;;;;;;;14.90;56.33;101393.02;1701357;84;21560;-55
2022/10/15 09:00:51;;;;;;;3.00;1.60;;;;;;;14.88;55.41;101391.05;1701104;84;21450;-62
2022/10/15 09:03:38;;;;;;;3.87;1.83;;;;;;;14.84;56.41;101393.23;1701190;84;20860;-55
2022/10/15 09:06:20;;;;;;;347.60;265.50;;;;;;;14.81;54.85;101397.05;1701601;83;21253;-65
2022/10/15 09:09:18;;;;;;;527.87;441.73;;;;;;;14.46;55.08;101393.80;1703165;84;20880;-56
2022/10/15 09:12:28;;;;;;;470.80;355.70;;;;;;;14.17;55.96;101390.65;1702629;84;20978;-58
2022/10/15 09:14:57;;;;;;;400.13;295.17;;;;;;;13.96;57.37;101382.17;1702774;83;20971;-55
2022/10/15 09:17:25;;;;;;;178.80;102.33;;;;;;;14.17;58.20;101378.38;1702287;84;20996;-56
2022/10/15 09:19:56;;;;;;;252.37;133.17;;;;;;;14.25;56.81;101384.85;1703071;83;22230;-55
2022/10/15 09:22:26;;;;;;;192.87;112.95;;;;;;;14.15;55.30;101372.48;1683917;84;20998;-55
2022/10/15 09:24:53;;;;;;;81.57;45.65;;;;;;;13.97;54.96;101372.81;1703300;84;21018;-55
2022/10/15 09:27:38;;;;;;;120.63;59.43;;;;;;;13.81;55.67;101376.39;1702600;83;20931;-65
2022/10/15 09:30:42;;;;;;;62.67;34.43;;;;;;;13.94;57.19;101382.36;1702693;84;21477;-55
2022/10/15 09:33:39;;;;;;;36.20;16.70;;;;;;;14.09;57.44;101377.96;1702143;84;21278;-55
2022/10/15 09:36:34;;;;;;;24.47;11.70;;;;;;;13.98;54.01;101365.75;1702752;84;21149;-55
2022/10/15 09:39:42;;;;;;;19.03;11.23;;;;;;;13.81;56.07;101369.84;1698875;84;20961;-55
2022/10/15 09:42:29;;;;;;;9.77;4.93;;;;;;;13.71;57.66;101373.19;1698592;84;21481;-56
2022/10/15 09:45:00;;;;;;;12.03;5.90;;;;;;;13.74;56.07;101382.02;1699009;84;21076;-55
2022/10/15 09:47:31;;;;;;;4.13;2.03;;;;;;;13.69;55.24;101373.88;1697758;84;21218;-57
2022/10/15 09:50:07;;;;;;;5.60;2.33;;;;;;;13.84;56.56;101366.88;1698645;84;21542;-56
2022/10/15 09:53:01;;;;;;;5.20;2.07;;;;;;;14.05;56.32;101367.98;1698842;83;20929;-56
2022/10/15 09:55:43;;;;;;;7.10;3.03;;;;;;;14.22;55.66;101366.84;1696841;84;21099;-56
2022/10/15 09:58:32;;;;;;;3.25;1.50;;;;;;;14.38;54.12;101361.11;1699022;84;21122;-57
2022/10/15 10:01:03;;;;;;;4.40;2.00;;;;;;;14.49;52.87;101354.09;1698747;84;21515;-55
2022/10/15 10:03:35;;;;;;;5.30;2.40;;;;;;;14.42;53.16;101351.38;1698519;84;20976;-56
2022/10/15 10:06:09;;;;;;;3.73;1.70;;;;;;;14.38;54.79;101351.42;1698718;84;21028;-55
2022/10/15 10:08:50;;;;;;;;;;;;;;;14.47;53.59;101351.67;1701184;84;21070;-56
2022/10/15 10:11:18;;;;;;;6.07;2.00;;;;;;;14.33;51.91;101349.85;1698679;84;20479;-56
2022/10/15 10:13:59;;;;;;;6.87;3.60;;;;;;;14.22;53.13;101345.87;1698731;84;22224;-56
2022/10/15 10:16:26;;;;;;;4.03;1.93;;;;;;;14.14;53.21;101351.20;1698751;84;21478;-56
2022/10/15 10:19:12;;;;;;;5.80;2.50;;;;;;;13.94;54.10;101344.36;1698864;84;20932;-57
2022/10/15 10:21:41;;;;;;;5.13;1.97;;;;;;;14.02;54.53;101340.84;1698831;84;20952;-62
2022/10/15 10:24:29;;;;;;;4.73;1.80;;;;;;;14.05;53.88;101341.30;1680710;84;21016;-57
2022/10/15 10:26:57;;;;;;;3.17;1.70;;;;;;;14.11;54.59;101344.50;1699183;84;21237;-57
2022/10/15 10:29:24;;;;;;;4.13;1.60;;;;;;;14.02;53.66;101346.08;1699062;84;20972;-67
2022/10/15 10:31:51;;;;;;;5.73;2.13;;;;;;;13.93;54.60;101344.02;1698494;84;20924;-59
2022/10/15 10:34:30;;;;;;;3.97;1.90;;;;;;;13.93;54.56;101338.77;1698958;84;21040;-57
2022/10/15 10:37:03;;;;;;;8.00;2.60;;;;;;;13.99;54.75;101342.00;1699385;84;21085;-58
2022/10/15 10:39:31;;;;;;;5.80;2.27;;;;;;;14.24;55.86;101335.19;1679262;84;22297;-62
2022/10/15 10:42:05;;;;;;;3.47;1.70;;;;;;;14.47;54.13;101328.05;1703805;82;20940;-55
2022/10/15 10:44:40;;;;;;;5.30;2.10;;;;;;;14.60;53.37;101326.12;1704125;84;21043;-56
2022/10/15 10:47:18;;;;;;;4.90;2.40;;;;;;;14.78;52.92;101334.42;1704098;84;21478;-57
2022/10/15 10:49:55;;;;;;;5.03;2.40;;;;;;;14.80;52.44;101325.84;1703939;84;21628;-57
2022/10/15 10:52:35;;;;;;;24.23;9.97;;;;;;;14.78;51.31;101319.98;1704165;84;21216;-57
2022/10/15 10:55:24;;;;;;;133.80;87.12;;;;;;;14.62;52.28;101316.73;1703490;84;21078;-65
2022/10/15 10:57:58;;;;;;;38.40;26.37;;;;;;;14.49;53.19;101321.30;1704413;84;21016;-55
2022/10/15 11:00:41;;;;;;;13.97;8.30;;;;;;;14.46;53.14;101313.29;1704250;83;20994;-56
2022/10/15 11:03:24;;;;;;;7.33;4.40;;;;;;;14.43;52.66;101319.39;1703678;84;21023;-56
2022/10/15 11:06:17;;;;;;;5.67;2.03;;;;;;;14.24;51.37;101313.70;1703929;84;21237;-56
2022/10/15 11:09:26;;;;;;;204.65;107.60;;;;;;;13.97;52.03;101323.50;1704417;84;20943;-56
2022/10/15 11:12:12;;;;;;;12.67;6.90;;;;;;;13.84;52.90;101311.83;1704186;83;21291;-56
2022/10/15 11:15:06;;;;;;;8.40;4.03;;;;;;;14.01;53.44;101309.05;1704581;84;20956;-58
2022/10/15 11:18:07;;;;;;;6.60;3.87;;;;;;;14.16;54.48;101308.55;1703460;84;21462;-56
2022/10/15 11:21:00;;;;;;;4.83;2.33;;;;;;;14.36;53.73;101310.16;1703777;84;21316;-55
2022/10/15 11:23:56;;;;;;;10.37;5.73;;;;;;;14.56;53.34;101306.49;1690449;84;21059;-56
2022/10/15 11:26:47;;;;;;;5.93;2.67;;;;;;;14.62;52.01;101309.67;1703887;84;21004;-57
2022/10/15 11:29:29;;;;;;;160.67;105.12;;;;;;;14.57;52.30;101305.48;1704031;84;21020;-57
2022/10/15 11:32:19;;;;;;;36.87;25.83;;;;;;;14.50;51.94;101309.84;1703418;84;21035;-57
2022/10/15 11:35:26;;;;;;;20.75;13.00;;;;;;;14.36;52.44;101307.53;1704030;84;21224;-57
2022/10/15 11:38:32;;;;;;;5.17;2.63;;;;;;;14.25;53.03;101306.17;1702205;83;21071;-61
2022/10/15 11:41:13;;;;;;;3.83;2.10;;;;;;;14.07;52.34;101303.09;1698787;84;21008;-57
2022/10/15 11:44:00;;;;;;;4.03;2.22;;;;;;;13.85;52.69;101308.21;1698622;84;21008;-57
2022/10/15 11:46:39;;;;;;;4.37;2.17;;;;;;;13.73;53.29;101308.33;1698550;84;20912;-56